sensor_id;sensor_type;location;lat;lon;timestamp;P1;durP1;ratioP1;P2;durP2;ratioP2
10641;SDS011;5369;49.586;8.646;2022-09-29T00:00:33;9.13;;;6.63;;
10641;SDS011;5369;49.586;8.646;2022-09-29T00:03:00;7.93;;;6.07;;
10641;SDS011;5369;49.586;8.646;2022-09-29T00:05:26;9.70;;;6.70;;
10641;SDS011;5369;49.586;8.646;2022-09-29T00:07:52;9.93;;;6.47;;
10641;SDS011;5369;49.586;8.646;2022-09-29T00:10:19;8.30;;;6.80;;
10641;SDS011;5369;49.586;8.646;2022-09-29T00:12:45;8.33;;;5.50;;
10641;SDS011;5369;49.586;8.646;2022-09-29T00:15:11;8.20;;;5.70;;
10641;SDS011;5369;49.586;8.646;2022-09-29T00:17:38;10.37;;;6.27;;
10641;SDS011;5369;49.586;8.646;2022-09-29T00:20:04;7.97;;;5.57;;
10641;SDS011;5369;49.586;8.646;2022-09-29T00:22:30;8.90;;;6.20;;
10641;SDS011;5369;49.586;8.646;2022-09-29T00:24:56;10.33;;;6.77;;
10641;SDS011;5369;49.586;8.646;2022-09-29T00:27:23;9.17;;;6.57;;
10641;SDS011;5369;49.586;8.646;2022-09-29T00:29:49;7.50;;;6.00;;
10641;SDS011;5369;49.586;8.646;2022-09-29T00:32:15;7.23;;;5.93;;
10641;SDS011;5369;49.586;8.646;2022-09-29T00:34:41;8.50;;;5.70;;
10641;SDS011;5369;49.586;8.646;2022-09-29T00:37:07;9.87;;;5.80;;
10641;SDS011;5369;49.586;8.646;2022-09-29T00:39:33;7.70;;;6.20;;
10641;SDS011;5369;49.586;8.646;2022-09-29T00:41:59;6.90;;;5.50;;
10641;SDS011;5369;49.586;8.646;2022-09-29T00:47:13;6.37;;;5.00;;
10641;SDS011;5369;49.586;8.646;2022-09-29T00:50:00;8.73;;;5.90;;
10641;SDS011;5369;49.586;8.646;2022-09-29T00:52:35;7.03;;;5.53;;
10641;SDS011;5369;49.586;8.646;2022-09-29T00:55:11;6.27;;;5.27;;
10641;SDS011;5369;49.586;8.646;2022-09-29T00:57:58;6.83;;;5.60;;
10641;SDS011;5369;49.586;8.646;2022-09-29T01:00:26;8.83;;;5.60;;
10641;SDS011;5369;49.586;8.646;2022-09-29T01:02:54;7.90;;;5.50;;
10641;SDS011;5369;49.586;8.646;2022-09-29T01:05:25;5.70;;;5.03;;
10641;SDS011;5369;49.586;8.646;2022-09-29T01:07:52;6.97;;;5.40;;
10641;SDS011;5369;49.586;8.646;2022-09-29T01:10:18;6.77;;;5.07;;
10641;SDS011;5369;49.586;8.646;2022-09-29T01:12:45;5.47;;;4.70;;
10641;SDS011;5369;49.586;8.646;2022-09-29T01:15:13;8.33;;;5.53;;
10641;SDS011;5369;49.586;8.646;2022-09-29T01:17:39;7.10;;;4.80;;
10641;SDS011;5369;49.586;8.646;2022-09-29T01:20:10;7.00;;;5.07;;
10641;SDS011;5369;49.586;8.646;2022-09-29T01:22:51;7.33;;;5.50;;
10641;SDS011;5369;49.586;8.646;2022-09-29T01:25:42;6.40;;;5.17;;
10641;SDS011;5369;49.586;8.646;2022-09-29T01:33:49;6.00;;;4.53;;
10641;SDS011;5369;49.586;8.646;2022-09-29T01:41:40;7.47;;;4.73;;
10641;SDS011;5369;49.586;8.646;2022-09-29T01:44:20;5.23;;;4.40;;
10641;SDS011;5369;49.586;8.646;2022-09-29T01:46:52;7.83;;;4.60;;
10641;SDS011;5369;49.586;8.646;2022-09-29T01:49:22;6.57;;;5.03;;
10641;SDS011;5369;49.586;8.646;2022-09-29T01:51:58;6.07;;;4.37;;
10641;SDS011;5369;49.586;8.646;2022-09-29T01:54:27;10.17;;;4.73;;
10641;SDS011;5369;49.586;8.646;2022-09-29T01:56:57;7.53;;;4.83;;
10641;SDS011;5369;49.586;8.646;2022-09-29T01:59:26;6.23;;;5.17;;
10641;SDS011;5369;49.586;8.646;2022-09-29T02:01:55;8.13;;;4.70;;
10641;SDS011;5369;49.586;8.646;2022-09-29T02:04:46;10.33;;;5.40;;
10641;SDS011;5369;49.586;8.646;2022-09-29T02:07:18;7.30;;;4.90;;
10641;SDS011;5369;49.586;8.646;2022-09-29T02:09:47;5.70;;;4.90;;
10641;SDS011;5369;49.586;8.646;2022-09-29T02:12:15;6.13;;;5.27;;
10641;SDS011;5369;49.586;8.646;2022-09-29T02:14:44;8.33;;;6.60;;
10641;SDS011;5369;49.586;8.646;2022-09-29T02:17:13;6.57;;;5.80;;
10641;SDS011;5369;49.586;8.646;2022-09-29T02:19:44;8.27;;;5.57;;
10641;SDS011;5369;49.586;8.646;2022-09-29T02:22:11;9.17;;;7.20;;
10641;SDS011;5369;49.586;8.646;2022-09-29T02:24:37;7.97;;;6.83;;
10641;SDS011;5369;49.586;8.646;2022-09-29T02:27:03;10.07;;;7.73;;
10641;SDS011;5369;49.586;8.646;2022-09-29T02:29:31;12.37;;;7.13;;
10641;SDS011;5369;49.586;8.646;2022-09-29T02:31:57;8.50;;;6.80;;
10641;SDS011;5369;49.586;8.646;2022-09-29T02:34:27;7.60;;;6.37;;
10641;SDS011;5369;49.586;8.646;2022-09-29T02:39:31;9.87;;;6.60;;
10641;SDS011;5369;49.586;8.646;2022-09-29T02:42:32;8.97;;;6.10;;
10641;SDS011;5369;49.586;8.646;2022-09-29T02:50:18;7.27;;;6.27;;
10641;SDS011;5369;49.586;8.646;2022-09-29T02:52:51;6.80;;;6.00;;
10641;SDS011;5369;49.586;8.646;2022-09-29T02:55:21;8.37;;;6.07;;
10641;SDS011;5369;49.586;8.646;2022-09-29T02:57:49;7.70;;;5.70;;
10641;SDS011;5369;49.586;8.646;2022-09-29T03:00:18;9.00;;;5.73;;
10641;SDS011;5369;49.586;8.646;2022-09-29T03:02:45;6.93;;;5.90;;
10641;SDS011;5369;49.586;8.646;2022-09-29T03:05:12;6.40;;;5.43;;
10641;SDS011;5369;49.586;8.646;2022-09-29T03:07:39;7.40;;;6.00;;
10641;SDS011;5369;49.586;8.646;2022-09-29T03:10:05;7.50;;;6.20;;
10641;SDS011;5369;49.586;8.646;2022-09-29T03:12:32;7.37;;;6.00;;
10641;SDS011;5369;49.586;8.646;2022-09-29T03:14:59;9.70;;;6.43;;
10641;SDS011;5369;49.586;8.646;2022-09-29T03:17:25;7.27;;;6.20;;
10641;SDS011;5369;49.586;8.646;2022-09-29T03:19:51;8.50;;;6.03;;
10641;SDS011;5369;49.586;8.646;2022-09-29T03:22:17;5.87;;;5.27;;
10641;SDS011;5369;49.586;8.646;2022-09-29T03:24:43;6.70;;;5.20;;
10641;SDS011;5369;49.586;8.646;2022-09-29T03:27:10;6.43;;;5.47;;
10641;SDS011;5369;49.586;8.646;2022-09-29T03:29:36;6.93;;;5.50;;
10641;SDS011;5369;49.586;8.646;2022-09-29T03:32:03;9.17;;;6.10;;
10641;SDS011;5369;49.586;8.646;2022-09-29T03:34:30;7.67;;;5.77;;
10641;SDS011;5369;49.586;8.646;2022-09-29T03:36:56;8.23;;;6.07;;
10641;SDS011;5369;49.586;8.646;2022-09-29T03:39:23;8.70;;;6.47;;
10641;SDS011;5369;49.586;8.646;2022-09-29T03:41:49;7.00;;;5.70;;
10641;SDS011;5369;49.586;8.646;2022-09-29T03:44:15;7.33;;;5.80;;
10641;SDS011;5369;49.586;8.646;2022-09-29T03:46:42;6.00;;;5.33;;
10641;SDS011;5369;49.586;8.646;2022-09-29T03:49:11;7.60;;;5.50;;
10641;SDS011;5369;49.586;8.646;2022-09-29T03:51:37;7.27;;;5.27;;
10641;SDS011;5369;49.586;8.646;2022-09-29T03:54:04;7.07;;;5.70;;
10641;SDS011;5369;49.586;8.646;2022-09-29T03:56:30;7.70;;;5.77;;
10641;SDS011;5369;49.586;8.646;2022-09-29T03:58:57;8.43;;;5.70;;
10641;SDS011;5369;49.586;8.646;2022-09-29T04:01:23;8.47;;;6.20;;
10641;SDS011;5369;49.586;8.646;2022-09-29T04:03:49;7.63;;;6.00;;
10641;SDS011;5369;49.586;8.646;2022-09-29T04:06:15;7.90;;;7.10;;
10641;SDS011;5369;49.586;8.646;2022-09-29T04:08:41;8.83;;;7.43;;
10641;SDS011;5369;49.586;8.646;2022-09-29T04:11:07;9.87;;;6.97;;
10641;SDS011;5369;49.586;8.646;2022-09-29T04:13:34;7.53;;;6.60;;
10641;SDS011;5369;49.586;8.646;2022-09-29T04:16:01;8.70;;;7.37;;
10641;SDS011;5369;49.586;8.646;2022-09-29T04:18:27;7.57;;;6.77;;
10641;SDS011;5369;49.586;8.646;2022-09-29T04:20:54;9.37;;;5.80;;
10641;SDS011;5369;49.586;8.646;2022-09-29T04:23:25;8.50;;;6.70;;
10641;SDS011;5369;49.586;8.646;2022-09-29T04:25:53;8.83;;;6.70;;
10641;SDS011;5369;49.586;8.646;2022-09-29T04:28:20;9.53;;;6.60;;
10641;SDS011;5369;49.586;8.646;2022-09-29T04:30:46;10.03;;;6.80;;
10641;SDS011;5369;49.586;8.646;2022-09-29T04:33:12;9.63;;;6.97;;
10641;SDS011;5369;49.586;8.646;2022-09-29T04:35:38;7.10;;;5.60;;
10641;SDS011;5369;49.586;8.646;2022-09-29T04:38:04;6.47;;;5.77;;
10641;SDS011;5369;49.586;8.646;2022-09-29T04:40:33;9.13;;;6.33;;
10641;SDS011;5369;49.586;8.646;2022-09-29T04:42:59;7.90;;;6.57;;
10641;SDS011;5369;49.586;8.646;2022-09-29T04:45:25;6.53;;;5.63;;
10641;SDS011;5369;49.586;8.646;2022-09-29T04:47:51;6.13;;;5.53;;
10641;SDS011;5369;49.586;8.646;2022-09-29T04:50:18;7.17;;;6.20;;
10641;SDS011;5369;49.586;8.646;2022-09-29T04:52:44;6.93;;;6.20;;
10641;SDS011;5369;49.586;8.646;2022-09-29T04:55:10;8.00;;;6.33;;
10641;SDS011;5369;49.586;8.646;2022-09-29T04:57:37;10.90;;;7.30;;
10641;SDS011;5369;49.586;8.646;2022-09-29T05:00:04;9.73;;;6.80;;
10641;SDS011;5369;49.586;8.646;2022-09-29T05:02:31;7.93;;;5.93;;
10641;SDS011;5369;49.586;8.646;2022-09-29T05:04:58;7.00;;;5.90;;
10641;SDS011;5369;49.586;8.646;2022-09-29T05:07:24;7.97;;;6.27;;
10641;SDS011;5369;49.586;8.646;2022-09-29T05:09:50;7.63;;;5.87;;
10641;SDS011;5369;49.586;8.646;2022-09-29T05:12:16;7.23;;;5.90;;
10641;SDS011;5369;49.586;8.646;2022-09-29T05:14:42;7.20;;;6.00;;
10641;SDS011;5369;49.586;8.646;2022-09-29T05:17:08;7.03;;;6.00;;
10641;SDS011;5369;49.586;8.646;2022-09-29T05:19:34;8.07;;;6.10;;
10641;SDS011;5369;49.586;8.646;2022-09-29T05:22:01;6.73;;;5.63;;
10641;SDS011;5369;49.586;8.646;2022-09-29T05:24:27;7.73;;;5.93;;
10641;SDS011;5369;49.586;8.646;2022-09-29T05:26:53;8.83;;;5.73;;
10641;SDS011;5369;49.586;8.646;2022-09-29T05:29:20;9.23;;;6.27;;
10641;SDS011;5369;49.586;8.646;2022-09-29T05:31:48;11.00;;;6.30;;
10641;SDS011;5369;49.586;8.646;2022-09-29T05:34:14;7.03;;;5.80;;
10641;SDS011;5369;49.586;8.646;2022-09-29T05:36:40;10.13;;;6.63;;
10641;SDS011;5369;49.586;8.646;2022-09-29T05:39:06;9.50;;;6.33;;
10641;SDS011;5369;49.586;8.646;2022-09-29T05:41:33;7.67;;;6.57;;
10641;SDS011;5369;49.586;8.646;2022-09-29T05:43:59;9.93;;;6.93;;
10641;SDS011;5369;49.586;8.646;2022-09-29T05:46:25;7.27;;;6.57;;
10641;SDS011;5369;49.586;8.646;2022-09-29T05:48:52;7.57;;;6.00;;
10641;SDS011;5369;49.586;8.646;2022-09-29T05:51:19;7.43;;;6.20;;
10641;SDS011;5369;49.586;8.646;2022-09-29T05:53:45;9.20;;;6.33;;
10641;SDS011;5369;49.586;8.646;2022-09-29T05:56:13;7.80;;;6.33;;
10641;SDS011;5369;49.586;8.646;2022-09-29T05:58:40;7.73;;;6.50;;
10641;SDS011;5369;49.586;8.646;2022-09-29T06:01:07;6.73;;;5.97;;
10641;SDS011;5369;49.586;8.646;2022-09-29T06:03:34;8.77;;;6.13;;
10641;SDS011;5369;49.586;8.646;2022-09-29T06:08:32;7.20;;;6.33;;
10641;SDS011;5369;49.586;8.646;2022-09-29T06:11:02;8.00;;;6.37;;
10641;SDS011;5369;49.586;8.646;2022-09-29T06:13:29;6.90;;;6.20;;
10641;SDS011;5369;49.586;8.646;2022-09-29T06:15:57;7.50;;;6.37;;
10641;SDS011;5369;49.586;8.646;2022-09-29T06:18:23;8.47;;;7.10;;
10641;SDS011;5369;49.586;8.646;2022-09-29T06:20:49;10.27;;;7.30;;
10641;SDS011;5369;49.586;8.646;2022-09-29T06:23:16;8.53;;;6.23;;
10641;SDS011;5369;49.586;8.646;2022-09-29T06:25:42;9.03;;;6.80;;
10641;SDS011;5369;49.586;8.646;2022-09-29T06:28:08;8.43;;;6.40;;
10641;SDS011;5369;49.586;8.646;2022-09-29T06:30:34;10.63;;;6.53;;
10641;SDS011;5369;49.586;8.646;2022-09-29T06:33:00;7.63;;;6.30;;
10641;SDS011;5369;49.586;8.646;2022-09-29T06:35:26;8.97;;;6.93;;
10641;SDS011;5369;49.586;8.646;2022-09-29T06:38:11;8.73;;;7.10;;
10641;SDS011;5369;49.586;8.646;2022-09-29T06:40:37;8.93;;;6.57;;
10641;SDS011;5369;49.586;8.646;2022-09-29T06:43:03;8.00;;;6.60;;
10641;SDS011;5369;49.586;8.646;2022-09-29T06:45:30;7.77;;;6.90;;
10641;SDS011;5369;49.586;8.646;2022-09-29T06:48:00;8.77;;;6.20;;
10641;SDS011;5369;49.586;8.646;2022-09-29T06:50:27;10.93;;;7.80;;
10641;SDS011;5369;49.586;8.646;2022-09-29T06:52:54;10.73;;;8.13;;
10641;SDS011;5369;49.586;8.646;2022-09-29T06:55:20;10.03;;;7.23;;
10641;SDS011;5369;49.586;8.646;2022-09-29T06:57:46;9.73;;;7.50;;
10641;SDS011;5369;49.586;8.646;2022-09-29T07:00:12;12.47;;;8.10;;
10641;SDS011;5369;49.586;8.646;2022-09-29T07:02:38;10.93;;;8.20;;
10641;SDS011;5369;49.586;8.646;2022-09-29T07:05:05;10.60;;;7.90;;
10641;SDS011;5369;49.586;8.646;2022-09-29T07:07:31;9.17;;;7.57;;
10641;SDS011;5369;49.586;8.646;2022-09-29T07:09:57;13.10;;;8.80;;
10641;SDS011;5369;49.586;8.646;2022-09-29T07:12:23;13.60;;;9.80;;
10641;SDS011;5369;49.586;8.646;2022-09-29T07:14:50;11.50;;;9.10;;
10641;SDS011;5369;49.586;8.646;2022-09-29T07:17:16;13.77;;;9.77;;
10641;SDS011;5369;49.586;8.646;2022-09-29T07:19:42;15.40;;;9.10;;
10641;SDS011;5369;49.586;8.646;2022-09-29T07:22:09;14.03;;;8.50;;
10641;SDS011;5369;49.586;8.646;2022-09-29T07:24:35;13.73;;;9.17;;
10641;SDS011;5369;49.586;8.646;2022-09-29T07:27:01;11.73;;;8.17;;
10641;SDS011;5369;49.586;8.646;2022-09-29T07:29:27;10.33;;;8.70;;
10641;SDS011;5369;49.586;8.646;2022-09-29T07:31:58;10.10;;;8.40;;
10641;SDS011;5369;49.586;8.646;2022-09-29T07:34:24;13.07;;;8.47;;
10641;SDS011;5369;49.586;8.646;2022-09-29T07:36:50;12.57;;;10.00;;
10641;SDS011;5369;49.586;8.646;2022-09-29T07:39:16;11.30;;;8.97;;
10641;SDS011;5369;49.586;8.646;2022-09-29T07:41:45;12.57;;;8.00;;
10641;SDS011;5369;49.586;8.646;2022-09-29T07:44:11;8.77;;;7.30;;
10641;SDS011;5369;49.586;8.646;2022-09-29T07:46:37;10.67;;;8.80;;
10641;SDS011;5369;49.586;8.646;2022-09-29T07:49:03;11.13;;;8.40;;
10641;SDS011;5369;49.586;8.646;2022-09-29T07:51:29;10.13;;;7.80;;
10641;SDS011;5369;49.586;8.646;2022-09-29T07:54:00;10.73;;;8.10;;
10641;SDS011;5369;49.586;8.646;2022-09-29T07:56:26;11.13;;;8.00;;
10641;SDS011;5369;49.586;8.646;2022-09-29T07:58:53;13.13;;;9.40;;
10641;SDS011;5369;49.586;8.646;2022-09-29T08:01:20;10.67;;;8.37;;
10641;SDS011;5369;49.586;8.646;2022-09-29T08:03:50;11.07;;;7.40;;
10641;SDS011;5369;49.586;8.646;2022-09-29T08:06:17;12.30;;;8.43;;
10641;SDS011;5369;49.586;8.646;2022-09-29T08:08:44;11.97;;;9.43;;
10641;SDS011;5369;49.586;8.646;2022-09-29T08:11:11;12.20;;;10.07;;
10641;SDS011;5369;49.586;8.646;2022-09-29T08:13:38;13.80;;;10.37;;
10641;SDS011;5369;49.586;8.646;2022-09-29T08:16:05;13.87;;;10.40;;
10641;SDS011;5369;49.586;8.646;2022-09-29T08:18:32;14.20;;;10.57;;
10641;SDS011;5369;49.586;8.646;2022-09-29T08:20:59;12.80;;;9.80;;
10641;SDS011;5369;49.586;8.646;2022-09-29T08:23:25;14.07;;;11.00;;
10641;SDS011;5369;49.586;8.646;2022-09-29T08:26:05;14.03;;;10.77;;
10641;SDS011;5369;49.586;8.646;2022-09-29T08:28:32;13.40;;;11.23;;
10641;SDS011;5369;49.586;8.646;2022-09-29T08:31:06;13.87;;;11.63;;
10641;SDS011;5369;49.586;8.646;2022-09-29T08:33:32;15.43;;;11.10;;
10641;SDS011;5369;49.586;8.646;2022-09-29T08:35:59;14.30;;;12.00;;
10641;SDS011;5369;49.586;8.646;2022-09-29T08:38:26;14.97;;;10.80;;
10641;SDS011;5369;49.586;8.646;2022-09-29T08:40:55;11.60;;;9.73;;
10641;SDS011;5369;49.586;8.646;2022-09-29T08:43:23;11.37;;;10.13;;
10641;SDS011;5369;49.586;8.646;2022-09-29T08:48:38;9.87;;;8.77;;
10641;SDS011;5369;49.586;8.646;2022-09-29T08:51:19;9.83;;;8.80;;
10641;SDS011;5369;49.586;8.646;2022-09-29T08:53:48;13.17;;;9.30;;
10641;SDS011;5369;49.586;8.646;2022-09-29T08:56:18;11.80;;;9.33;;
10641;SDS011;5369;49.586;8.646;2022-09-29T08:58:45;14.90;;;10.90;;
10641;SDS011;5369;49.586;8.646;2022-09-29T09:14:11;17.60;;;12.13;;
10641;SDS011;5369;49.586;8.646;2022-09-29T09:22:12;17.33;;;12.83;;
10641;SDS011;5369;49.586;8.646;2022-09-29T09:27:07;13.30;;;11.03;;
10641;SDS011;5369;49.586;8.646;2022-09-29T09:29:41;15.00;;;12.17;;
10641;SDS011;5369;49.586;8.646;2022-09-29T09:32:09;14.83;;;11.80;;
10641;SDS011;5369;49.586;8.646;2022-09-29T09:34:46;17.73;;;13.03;;
10641;SDS011;5369;49.586;8.646;2022-09-29T09:37:20;17.07;;;13.67;;
10641;SDS011;5369;49.586;8.646;2022-09-29T09:42:20;15.40;;;12.73;;
10641;SDS011;5369;49.586;8.646;2022-09-29T09:44:49;17.70;;;12.97;;
10641;SDS011;5369;49.586;8.646;2022-09-29T09:47:24;15.60;;;12.70;;
10641;SDS011;5369;49.586;8.646;2022-09-29T09:49:53;13.50;;;11.67;;
10641;SDS011;5369;49.586;8.646;2022-09-29T09:55:08;12.30;;;10.83;;
10641;SDS011;5369;49.586;8.646;2022-09-29T10:00:11;13.87;;;10.33;;
10641;SDS011;5369;49.586;8.646;2022-09-29T10:02:41;13.00;;;11.10;;
10641;SDS011;5369;49.586;8.646;2022-09-29T10:05:12;13.37;;;9.73;;
10641;SDS011;5369;49.586;8.646;2022-09-29T10:07:38;15.23;;;10.87;;
10641;SDS011;5369;49.586;8.646;2022-09-29T10:10:06;15.77;;;10.87;;
10641;SDS011;5369;49.586;8.646;2022-09-29T10:12:38;14.13;;;10.70;;
10641;SDS011;5369;49.586;8.646;2022-09-29T10:15:11;11.17;;;9.00;;
10641;SDS011;5369;49.586;8.646;2022-09-29T10:17:39;10.40;;;8.83;;
10641;SDS011;5369;49.586;8.646;2022-09-29T10:20:07;10.43;;;9.10;;
10641;SDS011;5369;49.586;8.646;2022-09-29T10:22:34;12.10;;;10.07;;
10641;SDS011;5369;49.586;8.646;2022-09-29T10:25:11;14.10;;;11.17;;
10641;SDS011;5369;49.586;8.646;2022-09-29T10:27:40;12.47;;;9.37;;
10641;SDS011;5369;49.586;8.646;2022-09-29T10:30:21;12.60;;;9.60;;
10641;SDS011;5369;49.586;8.646;2022-09-29T10:32:48;10.43;;;8.90;;
10641;SDS011;5369;49.586;8.646;2022-09-29T10:35:18;10.17;;;8.13;;
10641;SDS011;5369;49.586;8.646;2022-09-29T10:37:47;10.13;;;7.87;;
10641;SDS011;5369;49.586;8.646;2022-09-29T10:40:16;10.03;;;8.80;;
10641;SDS011;5369;49.586;8.646;2022-09-29T10:42:45;10.83;;;8.90;;
10641;SDS011;5369;49.586;8.646;2022-09-29T10:47:39;10.83;;;7.50;;
10641;SDS011;5369;49.586;8.646;2022-09-29T10:52:43;10.30;;;8.33;;
10641;SDS011;5369;49.586;8.646;2022-09-29T10:55:17;11.03;;;8.37;;
10641;SDS011;5369;49.586;8.646;2022-09-29T10:57:44;9.90;;;7.93;;
10641;SDS011;5369;49.586;8.646;2022-09-29T11:00:25;9.43;;;8.00;;
10641;SDS011;5369;49.586;8.646;2022-09-29T11:02:51;9.30;;;8.20;;
10641;SDS011;5369;49.586;8.646;2022-09-29T11:05:20;8.97;;;7.97;;
10641;SDS011;5369;49.586;8.646;2022-09-29T11:07:48;11.97;;;8.30;;
10641;SDS011;5369;49.586;8.646;2022-09-29T11:10:31;11.67;;;8.50;;
10641;SDS011;5369;49.586;8.646;2022-09-29T11:13:06;10.80;;;8.50;;
10641;SDS011;5369;49.586;8.646;2022-09-29T11:15:45;11.43;;;8.43;;
10641;SDS011;5369;49.586;8.646;2022-09-29T11:18:18;11.17;;;8.77;;
10641;SDS011;5369;49.586;8.646;2022-09-29T11:20:46;11.50;;;7.73;;
10641;SDS011;5369;49.586;8.646;2022-09-29T11:23:16;11.13;;;8.83;;
10641;SDS011;5369;49.586;8.646;2022-09-29T11:33:23;7.73;;;6.00;;
10641;SDS011;5369;49.586;8.646;2022-09-29T11:35:56;11.07;;;6.87;;
10641;SDS011;5369;49.586;8.646;2022-09-29T11:38:30;8.50;;;6.83;;
10641;SDS011;5369;49.586;8.646;2022-09-29T11:43:45;10.87;;;7.83;;
10641;SDS011;5369;49.586;8.646;2022-09-29T11:54:15;7.77;;;6.33;;
10641;SDS011;5369;49.586;8.646;2022-09-29T11:56:49;6.43;;;5.53;;
10641;SDS011;5369;49.586;8.646;2022-09-29T11:59:33;8.10;;;6.00;;
10641;SDS011;5369;49.586;8.646;2022-09-29T12:09:49;7.90;;;4.37;;
10641;SDS011;5369;49.586;8.646;2022-09-29T12:17:23;7.10;;;3.67;;
10641;SDS011;5369;49.586;8.646;2022-09-29T12:19:58;5.40;;;3.93;;
10641;SDS011;5369;49.586;8.646;2022-09-29T12:22:25;6.27;;;3.93;;
10641;SDS011;5369;49.586;8.646;2022-09-29T12:24:59;5.87;;;3.83;;
10641;SDS011;5369;49.586;8.646;2022-09-29T12:27:36;5.90;;;3.50;;
10641;SDS011;5369;49.586;8.646;2022-09-29T12:30:12;4.60;;;3.50;;
10641;SDS011;5369;49.586;8.646;2022-09-29T12:33:01;4.03;;;2.60;;
10641;SDS011;5369;49.586;8.646;2022-09-29T12:41:10;8.37;;;2.90;;
10641;SDS011;5369;49.586;8.646;2022-09-29T12:43:37;4.07;;;2.80;;
10641;SDS011;5369;49.586;8.646;2022-09-29T12:46:26;6.47;;;3.30;;
10641;SDS011;5369;49.586;8.646;2022-09-29T12:49:07;4.20;;;2.83;;
10641;SDS011;5369;49.586;8.646;2022-09-29T12:51:41;5.17;;;2.50;;
10641;SDS011;5369;49.586;8.646;2022-09-29T12:59:32;3.27;;;2.50;;
10641;SDS011;5369;49.586;8.646;2022-09-29T13:02:03;4.37;;;2.60;;
10641;SDS011;5369;49.586;8.646;2022-09-29T13:04:52;5.93;;;2.80;;
10641;SDS011;5369;49.586;8.646;2022-09-29T13:07:25;5.10;;;2.60;;
10641;SDS011;5369;49.586;8.646;2022-09-29T13:15:38;4.00;;;2.13;;
10641;SDS011;5369;49.586;8.646;2022-09-29T13:23:06;5.40;;;2.17;;
10641;SDS011;5369;49.586;8.646;2022-09-29T13:28:20;6.77;;;2.50;;
10641;SDS011;5369;49.586;8.646;2022-09-29T13:30:46;6.03;;;2.50;;
10641;SDS011;5369;49.586;8.646;2022-09-29T13:33:20;4.40;;;2.40;;
10641;SDS011;5369;49.586;8.646;2022-09-29T13:35:48;4.20;;;2.60;;
10641;SDS011;5369;49.586;8.646;2022-09-29T13:38:22;7.07;;;2.80;;
10641;SDS011;5369;49.586;8.646;2022-09-29T13:46:25;4.23;;;2.63;;
10641;SDS011;5369;49.586;8.646;2022-09-29T13:48:52;4.03;;;2.57;;
10641;SDS011;5369;49.586;8.646;2022-09-29T13:59:17;3.90;;;2.50;;
10641;SDS011;5369;49.586;8.646;2022-09-29T14:01:45;3.90;;;2.43;;
10641;SDS011;5369;49.586;8.646;2022-09-29T14:07:00;4.90;;;2.63;;
10641;SDS011;5369;49.586;8.646;2022-09-29T14:09:31;3.67;;;2.40;;
10641;SDS011;5369;49.586;8.646;2022-09-29T14:12:03;4.70;;;2.80;;
10641;SDS011;5369;49.586;8.646;2022-09-29T14:14:31;3.80;;;2.53;;
10641;SDS011;5369;49.586;8.646;2022-09-29T14:17:07;4.57;;;2.70;;
10641;SDS011;5369;49.586;8.646;2022-09-29T14:22:07;5.23;;;3.50;;
10641;SDS011;5369;49.586;8.646;2022-09-29T14:24:53;5.53;;;3.93;;
10641;SDS011;5369;49.586;8.646;2022-09-29T14:27:27;5.03;;;4.27;;
10641;SDS011;5369;49.586;8.646;2022-09-29T14:32:22;7.10;;;5.10;;
10641;SDS011;5369;49.586;8.646;2022-09-29T14:34:50;6.77;;;4.77;;
10641;SDS011;5369;49.586;8.646;2022-09-29T14:37:19;6.30;;;4.80;;
10641;SDS011;5369;49.586;8.646;2022-09-29T14:39:46;7.00;;;5.03;;
10641;SDS011;5369;49.586;8.646;2022-09-29T14:42:32;7.43;;;4.70;;
10641;SDS011;5369;49.586;8.646;2022-09-29T14:44:59;5.53;;;4.10;;
10641;SDS011;5369;49.586;8.646;2022-09-29T15:01:05;5.63;;;4.30;;
10641;SDS011;5369;49.586;8.646;2022-09-29T15:03:36;16.53;;;4.70;;
10641;SDS011;5369;49.586;8.646;2022-09-29T15:06:16;8.73;;;4.67;;
10641;SDS011;5369;49.586;8.646;2022-09-29T15:08:51;8.07;;;4.00;;
10641;SDS011;5369;49.586;8.646;2022-09-29T15:11:22;5.17;;;3.47;;
10641;SDS011;5369;49.586;8.646;2022-09-29T15:13:50;6.67;;;3.70;;
10641;SDS011;5369;49.586;8.646;2022-09-29T15:16:21;6.50;;;3.90;;
10641;SDS011;5369;49.586;8.646;2022-09-29T15:18:54;6.30;;;3.60;;
10641;SDS011;5369;49.586;8.646;2022-09-29T15:26:30;5.07;;;3.20;;
10641;SDS011;5369;49.586;8.646;2022-09-29T15:28:56;5.80;;;3.40;;
10641;SDS011;5369;49.586;8.646;2022-09-29T15:31:27;8.50;;;3.20;;
10641;SDS011;5369;49.586;8.646;2022-09-29T15:33:54;4.63;;;3.20;;
10641;SDS011;5369;49.586;8.646;2022-09-29T15:36:22;5.77;;;3.20;;
10641;SDS011;5369;49.586;8.646;2022-09-29T15:38:52;4.63;;;3.10;;
10641;SDS011;5369;49.586;8.646;2022-09-29T15:41:20;4.43;;;3.10;;
10641;SDS011;5369;49.586;8.646;2022-09-29T15:43:55;5.97;;;3.40;;
10641;SDS011;5369;49.586;8.646;2022-09-29T15:46:23;6.67;;;3.43;;
10641;SDS011;5369;49.586;8.646;2022-09-29T15:51:34;5.47;;;4.90;;
10641;SDS011;5369;49.586;8.646;2022-09-29T15:54:01;5.70;;;4.37;;
10641;SDS011;5369;49.586;8.646;2022-09-29T15:56:30;4.30;;;3.77;;
10641;SDS011;5369;49.586;8.646;2022-09-29T15:58:56;6.43;;;3.83;;
10641;SDS011;5369;49.586;8.646;2022-09-29T16:01:22;5.80;;;3.93;;
10641;SDS011;5369;49.586;8.646;2022-09-29T16:03:52;5.77;;;4.10;;
10641;SDS011;5369;49.586;8.646;2022-09-29T16:06:24;5.00;;;3.30;;
10641;SDS011;5369;49.586;8.646;2022-09-29T16:08:53;4.20;;;2.90;;
10641;SDS011;5369;49.586;8.646;2022-09-29T16:11:22;4.47;;;3.03;;
10641;SDS011;5369;49.586;8.646;2022-09-29T16:13:50;7.23;;;3.10;;
10641;SDS011;5369;49.586;8.646;2022-09-29T16:16:23;5.70;;;3.20;;
10641;SDS011;5369;49.586;8.646;2022-09-29T16:18:51;5.30;;;3.10;;
10641;SDS011;5369;49.586;8.646;2022-09-29T16:21:19;3.93;;;2.90;;
10641;SDS011;5369;49.586;8.646;2022-09-29T16:23:48;5.50;;;2.83;;
10641;SDS011;5369;49.586;8.646;2022-09-29T16:31:27;5.27;;;3.97;;
10641;SDS011;5369;49.586;8.646;2022-09-29T16:33:54;6.13;;;3.43;;
10641;SDS011;5369;49.586;8.646;2022-09-29T16:36:21;6.17;;;3.23;;
10641;SDS011;5369;49.586;8.646;2022-09-29T16:38:49;4.37;;;2.90;;
10641;SDS011;5369;49.586;8.646;2022-09-29T16:43:45;3.60;;;2.80;;
10641;SDS011;5369;49.586;8.646;2022-09-29T16:46:15;4.97;;;2.70;;
10641;SDS011;5369;49.586;8.646;2022-09-29T16:48:43;4.23;;;3.17;;
10641;SDS011;5369;49.586;8.646;2022-09-29T16:51:19;5.13;;;3.60;;
10641;SDS011;5369;49.586;8.646;2022-09-29T16:53:46;5.83;;;4.07;;
10641;SDS011;5369;49.586;8.646;2022-09-29T16:56:29;6.90;;;3.60;;
10641;SDS011;5369;49.586;8.646;2022-09-29T16:59:01;3.97;;;3.30;;
10641;SDS011;5369;49.586;8.646;2022-09-29T17:01:28;4.83;;;3.23;;
10641;SDS011;5369;49.586;8.646;2022-09-29T17:03:54;4.20;;;2.87;;
10641;SDS011;5369;49.586;8.646;2022-09-29T17:06:21;3.87;;;2.80;;
10641;SDS011;5369;49.586;8.646;2022-09-29T17:08:47;3.40;;;2.93;;
10641;SDS011;5369;49.586;8.646;2022-09-29T17:11:13;5.30;;;4.27;;
10641;SDS011;5369;49.586;8.646;2022-09-29T17:13:39;5.73;;;3.90;;
10641;SDS011;5369;49.586;8.646;2022-09-29T17:16:06;7.40;;;3.87;;
10641;SDS011;5369;49.586;8.646;2022-09-29T17:18:34;4.80;;;3.60;;
10641;SDS011;5369;49.586;8.646;2022-09-29T17:21:00;4.13;;;3.50;;
10641;SDS011;5369;49.586;8.646;2022-09-29T17:23:26;6.28;;;4.68;;
10641;SDS011;5369;49.586;8.646;2022-09-29T17:25:52;5.50;;;4.80;;
10641;SDS011;5369;49.586;8.646;2022-09-29T17:28:38;7.00;;;5.33;;
10641;SDS011;5369;49.586;8.646;2022-09-29T17:31:04;7.33;;;5.87;;
10641;SDS011;5369;49.586;8.646;2022-09-29T17:33:31;6.47;;;5.50;;
10641;SDS011;5369;49.586;8.646;2022-09-29T17:35:57;6.50;;;5.13;;
10641;SDS011;5369;49.586;8.646;2022-09-29T17:38:23;6.97;;;4.03;;
10641;SDS011;5369;49.586;8.646;2022-09-29T17:43:17;5.13;;;3.67;;
10641;SDS011;5369;49.586;8.646;2022-09-29T17:45:44;4.83;;;3.70;;
10641;SDS011;5369;49.586;8.646;2022-09-29T17:48:10;9.63;;;5.70;;
10641;SDS011;5369;49.586;8.646;2022-09-29T17:50:38;7.93;;;5.77;;
10641;SDS011;5369;49.586;8.646;2022-09-29T17:53:05;8.60;;;6.13;;
10641;SDS011;5369;49.586;8.646;2022-09-29T17:55:32;8.07;;;6.00;;